createdAt,value
2023-10-06T06:39:35.431Z,8.89
2023-10-06T06:41:35.448Z,9.20
2023-10-06T06:43:35.116Z,9.23
2023-10-06T06:45:37.463Z,9.32
2023-10-06T06:46:39.577Z,9.69
2023-10-06T06:47:44.892Z,9.80
2023-10-06T06:48:47.958Z,10.08
2023-10-06T06:49:49.791Z,9.91
2023-10-06T06:50:51.385Z,9.80
2023-10-06T06:51:54.339Z,10.01
2023-10-06T06:52:57.465Z,10.03
2023-10-06T06:53:58.959Z,10.30
2023-10-06T06:55:00.363Z,10.55
2023-10-06T06:56:01.892Z,10.74
2023-10-06T06:57:03.877Z,10.67
2023-10-06T06:58:11.823Z,10.81
2023-10-06T06:59:13.958Z,11.10
2023-10-06T07:00:22.996Z,11.39
2023-10-06T07:01:24.537Z,11.75
2023-10-06T07:02:26.228Z,11.69
2023-10-06T07:03:27.730Z,12.23
2023-10-06T07:04:31.337Z,12.12
2023-10-06T07:05:35.226Z,12.15
2023-10-06T07:06:36.735Z,12.31
2023-10-06T07:07:41.392Z,12.76
2023-10-06T07:08:45.270Z,13.05
2023-10-06T07:09:47.830Z,13.21
2023-10-06T07:10:54.035Z,13.41
2023-10-06T07:11:58.279Z,12.98
2023-10-06T07:12:59.808Z,12.85
2023-10-06T07:14:01.462Z,13.12
2023-10-06T07:15:03.924Z,13.05
2023-10-06T07:16:06.773Z,13.65
2023-10-06T07:17:08.235Z,14.07
2023-10-06T07:18:12.623Z,14.22
2023-10-06T07:19:18.353Z,14.74
2023-10-06T07:20:21.896Z,14.88
2023-10-06T07:21:23.999Z,14.91
2023-10-06T07:22:32.609Z,15.51
2023-10-06T07:23:35.986Z,15.15
2023-10-06T07:24:37.669Z,15.74
2023-10-06T07:25:39.302Z,16.09
2023-10-06T07:26:43.802Z,15.74
2023-10-06T07:27:50.209Z,15.48
2023-10-06T07:28:53.445Z,15.44
2023-10-06T07:29:56.013Z,15.11
2023-10-06T07:30:57.630Z,15.26
2023-10-06T07:32:02.097Z,15.94
2023-10-06T07:33:09.956Z,16.57
2023-10-06T07:34:12.916Z,16.38
2023-10-06T07:35:19.518Z,16.40
2023-10-06T07:36:21.673Z,16.52
2023-10-06T07:37:23.076Z,16.83
2023-10-06T07:38:25.337Z,16.78
2023-10-06T07:39:27.445Z,17.04
2023-10-06T07:40:29.340Z,17.45
2023-10-06T07:41:31.533Z,17.50
2023-10-06T07:42:33.260Z,17.57
2023-10-06T07:43:34.815Z,18.31
2023-10-06T07:44:36.963Z,18.57
2023-10-06T07:45:38.502Z,18.54
2023-10-06T07:46:39.884Z,18.31
2023-10-06T07:47:43.293Z,18.74
2023-10-06T07:48:51.488Z,18.99
2023-10-06T07:49:52.921Z,18.89
2023-10-06T07:50:55.030Z,19.06
2023-10-06T07:51:57.105Z,18.83
2023-10-06T07:52:58.577Z,19.43
2023-10-06T07:54:00.319Z,19.22
2023-10-06T07:55:01.782Z,19.24
2023-10-06T07:56:10.317Z,19.31
2023-10-06T07:57:13.977Z,19.31
2023-10-06T07:58:16.705Z,19.56
2023-10-06T07:59:18.216Z,19.33
2023-10-06T08:00:31.794Z,19.08
2023-10-06T08:01:36.112Z,19.65
2023-10-06T08:02:40.784Z,19.51
2023-10-06T08:03:42.855Z,19.35
2023-10-06T08:04:44.576Z,19.16
2023-10-06T08:05:45.952Z,19.37
2023-10-06T08:06:47.426Z,19.25
2023-10-06T08:07:48.909Z,19.31
2023-10-06T08:08:50.606Z,19.70
2023-10-06T08:09:52.890Z,19.60
2023-10-06T08:10:55.589Z,19.36
2023-10-06T08:11:57.049Z,19.48
2023-10-06T08:13:01.806Z,19.46
2023-10-06T08:14:04.232Z,19.65
2023-10-06T08:15:10.521Z,19.47
2023-10-06T08:16:13.787Z,19.52
2023-10-06T08:17:15.332Z,19.62
2023-10-06T08:18:16.767Z,20.06
2023-10-06T08:19:18.198Z,19.86
2023-10-06T08:20:21.205Z,19.84
2023-10-06T08:21:23.951Z,19.65
2023-10-06T08:22:27.029Z,19.68
2023-10-06T08:23:36.453Z,20.36
2023-10-06T08:24:37.982Z,20.21
2023-10-06T08:25:49.631Z,20.28
2023-10-06T08:27:01.571Z,20.27
2023-10-06T08:28:06.137Z,19.87
2023-10-06T08:29:07.698Z,20.17
2023-10-06T08:30:17.075Z,20.54
2023-10-06T08:31:18.617Z,20.39
2023-10-06T08:32:20.679Z,21.04
2023-10-06T08:33:27.047Z,21.24
2023-10-06T08:34:30.596Z,21.05
2023-10-06T08:35:32.148Z,20.96
2023-10-06T08:36:34.123Z,20.85
2023-10-06T08:37:35.609Z,20.98
2023-10-06T08:38:37.306Z,20.66
2023-10-06T08:39:43.483Z,20.70
2023-10-06T08:40:46.291Z,21.56
2023-10-06T08:41:50.927Z,20.96
2023-10-06T08:42:59.838Z,20.77
2023-10-06T08:44:05.626Z,21.28
2023-10-06T08:45:09.378Z,20.97
2023-10-06T08:46:14.420Z,21.36
2023-10-06T08:47:29.203Z,21.51
2023-10-06T08:48:33.857Z,21.28
2023-10-06T08:49:35.517Z,21.74
2023-10-06T08:50:38.364Z,22.23
2023-10-06T08:51:42.087Z,21.57
2023-10-06T08:52:47.000Z,21.48
2023-10-06T08:53:50.632Z,21.30
2023-10-06T08:54:52.117Z,21.13
2023-10-06T08:55:53.598Z,21.63
2023-10-06T08:56:55.152Z,22.23
2023-10-06T08:58:00.921Z,22.28
2023-10-06T08:59:06.601Z,22.16
2023-10-06T09:00:08.768Z,22.19
2023-10-06T09:01:13.494Z,21.92
2023-10-06T09:02:18.079Z,22.10
2023-10-06T09:03:21.602Z,22.22
2023-10-06T09:04:23.237Z,23.43
2023-10-06T09:05:24.915Z,23.42
2023-10-06T09:06:26.997Z,23.02
2023-10-06T09:07:28.373Z,22.40
2023-10-06T09:08:40.345Z,22.39
2023-10-06T09:09:43.949Z,22.47
2023-10-06T09:10:57.409Z,21.97
2023-10-06T09:11:59.856Z,21.79
2023-10-06T09:13:03.940Z,21.78
2023-10-06T09:14:09.695Z,22.48
2023-10-06T09:15:17.640Z,22.44
2023-10-06T09:16:19.565Z,23.26
2023-10-06T09:17:32.134Z,23.98
2023-10-06T09:18:40.463Z,23.84
2023-10-06T09:19:49.115Z,24.12
2023-10-06T09:20:52.210Z,23.36
2023-10-06T09:22:05.694Z,24.27
2023-10-06T09:23:07.664Z,24.19
2023-10-06T09:24:20.608Z,22.83
2023-10-06T09:25:22.730Z,25.14
2023-10-06T09:26:29.399Z,25.24
2023-10-06T09:27:31.104Z,24.35
2023-10-06T09:28:32.617Z,24.77
2023-10-06T09:29:34.666Z,24.96
2023-10-06T09:31:01.479Z,25.40
2023-10-06T09:32:22.007Z,24.58
2023-10-06T09:33:29.038Z,25.21
2023-10-06T09:34:33.838Z,25.38
2023-10-06T09:35:35.390Z,24.61
2023-10-06T09:36:44.554Z,24.60
2023-10-06T09:37:47.726Z,24.79
2023-10-06T09:38:50.475Z,25.36
2023-10-06T09:40:03.806Z,25.93
2023-10-06T09:41:09.080Z,26.10
2023-10-06T09:42:11.075Z,25.14
2023-10-06T09:43:17.486Z,24.89
2023-10-06T09:44:22.158Z,25.52
2023-10-06T09:45:26.001Z,26.85
2023-10-06T09:46:28.407Z,25.83
2023-10-06T09:47:32.379Z,25.15
2023-10-06T09:48:37.151Z,24.41
2023-10-06T09:49:40.690Z,24.71
2023-10-06T09:50:51.875Z,25.09
2023-10-06T09:51:53.956Z,25.83
2023-10-06T09:53:02.000Z,25.72
2023-10-06T09:54:05.452Z,25.57
2023-10-06T09:55:07.724Z,26.04
2023-10-06T09:56:12.543Z,26.02
2023-10-06T09:57:14.809Z,25.67
2023-10-06T09:58:18.387Z,25.54
2023-10-06T09:59:20.246Z,25.70
2023-10-06T10:00:22.432Z,24.89
2023-10-06T10:01:27.188Z,24.75
2023-10-06T10:02:33.640Z,25.97
2023-10-06T10:03:38.796Z,24.75
2023-10-06T10:04:40.678Z,24.26
2023-10-06T10:05:43.197Z,24.70
2023-10-06T10:06:45.796Z,25.08
2023-10-06T10:07:51.075Z,24.97
2023-10-06T10:08:52.518Z,24.87
2023-10-06T10:09:54.157Z,25.26
2023-10-06T10:10:58.044Z,25.16
2023-10-06T10:12:30.692Z,25.03
2023-10-06T10:13:46.093Z,25.80
2023-10-06T10:14:53.307Z,25.42
2023-10-06T10:16:17.675Z,26.40
2023-10-06T10:17:19.835Z,26.66
2023-10-06T10:18:27.518Z,25.83
2023-10-06T10:19:29.772Z,25.87
2023-10-06T10:20:33.769Z,25.69
2023-10-06T10:21:37.915Z,25.30
2023-10-06T10:22:42.082Z,25.49
2023-10-06T10:23:46.506Z,25.86
2023-10-06T10:25:52.948Z,27.02
2023-10-06T10:26:54.894Z,27.17
2023-10-06T10:28:20.752Z,26.59
2023-10-06T10:29:25.608Z,26.82
2023-10-06T10:30:57.599Z,26.82
2023-10-06T10:32:24.059Z,26.51
2023-10-06T10:33:31.044Z,26.21
2023-10-06T10:34:39.565Z,26.91
2023-10-06T10:36:16.980Z,27.15
2023-10-06T10:37:18.631Z,26.76
2023-10-06T10:38:20.112Z,27.07
2023-10-06T10:39:23.274Z,26.97
2023-10-06T10:40:27.048Z,27.50
2023-10-06T10:41:34.338Z,27.74
2023-10-06T10:42:41.672Z,27.87
2023-10-06T10:43:46.527Z,27.74
2023-10-06T10:44:49.501Z,27.41
2023-10-06T10:45:53.608Z,26.83
2023-10-06T10:46:57.317Z,26.20
2023-10-06T10:48:00.407Z,26.38
2023-10-06T10:49:02.717Z,26.04
2023-10-06T10:50:06.565Z,25.80
2023-10-06T10:51:13.000Z,25.81
2023-10-06T10:52:16.052Z,25.44
2023-10-06T10:53:23.686Z,25.88
2023-10-06T10:54:29.611Z,26.35
2023-10-06T10:55:32.540Z,26.22
2023-10-06T10:56:37.985Z,26.34
2023-10-06T10:57:45.676Z,25.48
2023-10-06T10:58:49.074Z,25.52
2023-10-06T11:00:08.941Z,25.53
2023-10-06T11:01:41.365Z,26.66
2023-10-06T11:03:02.079Z,26.85
2023-10-06T11:04:32.156Z,26.01
2023-10-06T11:05:34.805Z,25.96
2023-10-06T11:06:38.853Z,25.79
2023-10-06T11:07:40.622Z,27.51
2023-10-06T11:08:42.004Z,26.39
2023-10-06T11:09:49.702Z,26.85
2023-10-06T11:10:59.468Z,26.48
2023-10-06T11:12:23.609Z,26.13
2023-10-06T11:13:40.270Z,26.39
2023-10-06T11:14:47.116Z,27.19
2023-10-06T11:15:51.508Z,28.26
2023-10-06T11:16:54.675Z,29.08
2023-10-06T11:17:57.360Z,29.13
2023-10-06T11:19:04.658Z,28.73
2023-10-06T11:20:33.965Z,27.71
2023-10-06T11:21:35.358Z,27.82
2023-10-06T11:22:36.891Z,28.07
2023-10-06T11:23:44.970Z,27.36
2023-10-06T11:24:49.693Z,28.02
2023-10-06T11:25:51.401Z,28.75
2023-10-06T11:26:53.348Z,28.75
2023-10-06T11:28:04.342Z,29.39
2023-10-06T11:29:06.149Z,30.05
2023-10-06T11:30:10.041Z,29.87
2023-10-06T11:31:13.511Z,28.30
2023-10-06T11:32:15.142Z,27.45
2023-10-06T11:33:19.614Z,27.76
2023-10-06T11:34:21.139Z,27.59
2023-10-06T11:35:22.902Z,28.28
2023-10-06T11:36:24.351Z,28.31
2023-10-06T11:37:26.688Z,28.81
2023-10-06T11:38:29.033Z,29.01
2023-10-06T11:39:30.681Z,29.30
2023-10-06T11:40:33.232Z,28.79
2023-10-06T11:41:34.678Z,27.66
2023-10-06T11:42:42.304Z,28.32
2023-10-06T11:43:53.966Z,28.29
2023-10-06T11:44:57.703Z,28.52
2023-10-06T11:46:03.388Z,28.24
2023-10-06T11:47:05.249Z,28.08
2023-10-06T11:48:23.728Z,26.94
2023-10-06T11:49:25.221Z,26.07
2023-10-06T11:50:32.623Z,25.88
2023-10-06T11:51:40.603Z,25.64
2023-10-06T11:52:45.443Z,24.97
2023-10-06T11:53:46.960Z,25.27
2023-10-06T11:54:48.695Z,25.04
2023-10-06T11:55:52.720Z,24.62
2023-10-06T11:56:57.107Z,25.15
2023-10-06T11:58:02.394Z,25.85
2023-10-06T11:59:04.856Z,26.34
2023-10-06T12:00:11.474Z,25.96
2023-10-06T12:01:37.392Z,27.03
2023-10-06T12:02:51.323Z,28.14
2023-10-06T12:03:55.075Z,27.41
2023-10-06T12:05:10.680Z,27.55
2023-10-06T12:06:14.840Z,27.52
2023-10-06T12:07:26.257Z,27.54
2023-10-06T12:08:27.798Z,27.87
2023-10-06T12:09:35.441Z,28.10
2023-10-06T12:10:48.295Z,28.48
2023-10-06T12:11:49.713Z,28.47
2023-10-06T12:12:51.942Z,28.47
2023-10-06T12:13:53.429Z,28.92
2023-10-06T12:14:56.880Z,28.51
2023-10-06T12:15:58.304Z,29.21
2023-10-06T12:16:59.815Z,28.74
2023-10-06T12:18:01.404Z,28.94
2023-10-06T12:19:02.879Z,29.22
2023-10-06T12:20:06.088Z,28.75
2023-10-06T12:21:09.395Z,28.42
2023-10-06T12:22:14.760Z,28.77
2023-10-06T12:23:19.298Z,29.15
2023-10-06T12:24:23.723Z,29.17
2023-10-06T12:25:28.986Z,26.70
2023-10-06T12:26:30.463Z,26.67
2023-10-06T12:27:31.896Z,27.97
2023-10-06T12:28:33.593Z,28.85
2023-10-06T12:29:35.780Z,28.87
2023-10-06T12:30:37.328Z,28.43
2023-10-06T12:31:40.593Z,28.55
2023-10-06T12:32:46.908Z,29.07
2023-10-06T12:33:56.999Z,28.24
2023-10-06T12:35:01.080Z,27.82
2023-10-06T12:36:09.237Z,27.85
2023-10-06T12:37:12.344Z,27.95
2023-10-06T12:38:15.845Z,28.22
2023-10-06T12:39:18.508Z,28.04
2023-10-06T12:40:19.965Z,28.17
2023-10-06T12:41:22.961Z,28.32
2023-10-06T12:42:32.898Z,27.98
2023-10-06T12:43:37.139Z,28.14
2023-10-06T12:44:43.956Z,27.89
2023-10-06T12:45:45.680Z,27.91
2023-10-06T12:46:47.246Z,27.46
2023-10-06T12:47:51.545Z,27.96
2023-10-06T12:48:53.143Z,27.89
2023-10-06T12:49:54.794Z,27.50
2023-10-06T12:50:56.216Z,26.93
2023-10-06T12:51:59.016Z,27.58
2023-10-06T12:53:01.184Z,27.60
2023-10-06T12:54:04.154Z,26.89
2023-10-06T12:55:11.777Z,27.32
2023-10-06T12:56:13.664Z,27.32
2023-10-06T12:57:15.373Z,27.48
2023-10-06T12:58:17.702Z,27.66
2023-10-06T12:59:19.148Z,27.22
2023-10-06T13:00:21.204Z,26.63
2023-10-06T13:01:26.615Z,25.71
2023-10-06T13:02:28.165Z,25.95
2023-10-06T13:03:30.536Z,26.55
2023-10-06T13:04:32.438Z,26.98
2023-10-06T13:05:34.012Z,27.07
2023-10-06T13:06:36.751Z,27.50
2023-10-06T13:07:38.403Z,27.06
2023-10-06T13:08:41.027Z,26.05
2023-10-06T13:09:42.482Z,26.47
2023-10-06T13:10:48.316Z,26.49
2023-10-06T13:11:49.811Z,27.07
2023-10-06T13:12:51.953Z,27.30
2023-10-06T13:13:53.402Z,26.47
2023-10-06T13:14:55.422Z,26.17
2023-10-06T13:15:56.855Z,26.51
2023-10-06T13:16:58.547Z,26.95
2023-10-06T13:18:01.562Z,27.42
2023-10-06T13:19:03.092Z,27.95
2023-10-06T13:20:09.530Z,28.22
2023-10-06T13:21:11.547Z,26.74
2023-10-06T13:22:13.056Z,27.28
2023-10-06T13:23:14.556Z,27.34
2023-10-06T13:24:17.960Z,27.50
2023-10-06T13:25:19.544Z,27.70
2023-10-06T13:26:40.155Z,28.34
2023-10-06T13:27:48.092Z,28.59
2023-10-06T13:28:49.831Z,28.66
2023-10-06T13:29:53.253Z,28.58
2023-10-06T13:30:55.242Z,28.36
2023-10-06T13:31:56.790Z,28.10
2023-10-06T13:32:58.877Z,28.40
2023-10-06T13:34:04.377Z,28.75
2023-10-06T13:35:12.664Z,28.45
2023-10-06T13:36:15.852Z,28.55
2023-10-06T13:37:17.526Z,28.26
2023-10-06T13:38:20.300Z,28.48
2023-10-06T13:39:26.347Z,28.33
2023-10-06T13:40:29.707Z,28.37
2023-10-06T13:41:31.162Z,28.40
2023-10-06T13:42:32.560Z,28.43
2023-10-06T13:43:34.363Z,28.12
2023-10-06T13:44:36.379Z,27.07
2023-10-06T13:45:40.587Z,26.89
2023-10-06T13:46:42.139Z,26.69
2023-10-06T13:47:44.152Z,26.79
2023-10-06T13:48:45.936Z,26.60
2023-10-06T13:49:54.115Z,26.37
2023-10-06T13:50:59.179Z,25.96
2023-10-06T13:52:01.446Z,26.03
2023-10-06T13:53:03.733Z,26.23
2023-10-06T13:54:06.869Z,26.19
2023-10-06T13:55:12.420Z,26.28
2023-10-06T13:56:13.921Z,26.00
2023-10-06T13:57:15.388Z,25.90
2023-10-06T13:58:16.877Z,25.59
2023-10-06T13:59:19.600Z,25.73
2023-10-06T14:00:41.894Z,25.36
2023-10-06T14:01:43.537Z,25.10
2023-10-06T14:02:45.110Z,25.12
2023-10-06T14:03:49.354Z,24.84
2023-10-06T14:04:50.923Z,25.12
2023-10-06T14:05:54.090Z,24.88
2023-10-06T14:06:58.776Z,25.10
2023-10-06T14:08:01.711Z,24.58
2023-10-06T14:09:07.261Z,24.78
2023-10-06T14:10:17.166Z,25.01
2023-10-06T14:11:18.865Z,23.90
2023-10-06T14:12:21.705Z,23.42
2023-10-06T14:13:26.181Z,24.12
2023-10-06T14:14:46.331Z,23.97
2023-10-06T14:16:01.618Z,23.98
2023-10-06T14:17:03.628Z,24.18
2023-10-06T14:18:08.430Z,24.18
2023-10-06T14:19:10.336Z,24.36
2023-10-06T14:20:24.722Z,24.62
2023-10-06T14:21:26.231Z,24.03
2023-10-06T14:22:31.748Z,23.19
2023-10-06T14:23:35.530Z,22.78
2023-10-06T14:24:40.352Z,23.18
2023-10-06T14:25:43.909Z,22.66
2023-10-06T14:26:45.692Z,23.53
2023-10-06T14:27:47.194Z,23.58
2023-10-06T14:28:49.822Z,23.80
2023-10-06T14:29:52.254Z,24.03
2023-10-06T14:30:54.375Z,24.19
2023-10-06T14:32:19.651Z,23.70
2023-10-06T14:33:25.102Z,23.76
2023-10-06T14:34:47.787Z,23.81
2023-10-06T14:35:54.169Z,23.93
2023-10-06T14:36:58.684Z,24.12
2023-10-06T14:38:25.808Z,24.22
2023-10-06T14:39:45.595Z,24.09
2023-10-06T14:41:14.651Z,24.20
2023-10-06T14:42:34.596Z,24.09
2023-10-06T14:43:54.741Z,23.89
2023-10-06T14:45:14.577Z,23.88
2023-10-06T14:46:16.019Z,24.12
2023-10-06T14:47:19.408Z,24.08
2023-10-06T14:48:20.994Z,24.01
2023-10-06T14:49:27.709Z,24.22
2023-10-06T14:50:29.392Z,24.05
2023-10-06T14:51:31.434Z,24.16
2023-10-06T14:52:33.827Z,23.93
2023-10-06T14:53:36.163Z,23.94
2023-10-06T14:54:39.705Z,23.74
2023-10-06T14:55:41.316Z,23.76
2023-10-06T14:56:42.871Z,23.57
2023-10-06T14:57:44.343Z,23.47
2023-10-06T14:58:46.220Z,22.99
2023-10-06T14:59:47.672Z,22.71
2023-10-06T15:00:49.897Z,22.67
2023-10-06T15:01:54.836Z,22.81
2023-10-06T15:02:58.130Z,22.67
2023-10-06T15:04:05.564Z,22.28
2023-10-06T15:05:07.613Z,22.32
2023-10-06T15:06:12.226Z,21.89
2023-10-06T15:07:15.745Z,22.07
2023-10-06T15:08:17.646Z,21.87
2023-10-06T15:09:20.500Z,22.01
2023-10-06T15:10:21.888Z,21.97
2023-10-06T15:11:24.107Z,21.74
2023-10-06T15:12:26.810Z,21.04
2023-10-06T15:13:28.442Z,20.89
2023-10-06T15:14:30.068Z,20.99
2023-10-06T15:15:31.525Z,21.00
2023-10-06T15:16:33.265Z,21.18
2023-10-06T15:17:36.604Z,21.30
2023-10-06T15:18:38.700Z,21.15
2023-10-06T15:19:40.188Z,21.16
2023-10-06T15:20:43.466Z,21.04
2023-10-06T15:21:45.949Z,21.01
2023-10-06T15:22:47.537Z,21.19
2023-10-06T15:23:51.274Z,21.29
2023-10-06T15:24:55.405Z,20.93
2023-10-06T15:26:03.218Z,20.83
2023-10-06T15:27:07.913Z,20.53
2023-10-06T15:28:23.371Z,20.61
2023-10-06T15:29:35.279Z,20.16
2023-10-06T15:30:37.163Z,20.41
2023-10-06T15:31:38.926Z,20.17
2023-10-06T15:32:40.698Z,20.28
2023-10-06T15:33:45.143Z,20.23
2023-10-06T15:34:46.620Z,20.32
2023-10-06T15:35:48.316Z,20.25
2023-10-06T15:36:49.752Z,19.94
2023-10-06T15:37:51.214Z,19.89
2023-10-06T15:38:52.671Z,19.88
2023-10-06T15:39:55.588Z,19.96
2023-10-06T15:41:03.995Z,20.04
2023-10-06T15:42:05.870Z,20.14
2023-10-06T15:43:19.973Z,20.07
2023-10-06T15:44:22.719Z,20.05
2023-10-06T15:45:24.201Z,19.92
2023-10-06T15:46:26.380Z,19.65
2023-10-06T15:47:28.956Z,19.67
2023-10-06T15:48:34.708Z,19.48
2023-10-06T15:49:38.399Z,19.51
2023-10-06T15:50:39.884Z,19.60
2023-10-06T15:51:43.434Z,19.39
2023-10-06T15:52:44.930Z,19.29
2023-10-06T15:53:46.305Z,19.08
2023-10-06T15:54:48.253Z,19.12
2023-10-06T15:55:49.689Z,19.07
2023-10-06T15:56:52.010Z,19.24
2023-10-06T15:57:54.907Z,19.37
2023-10-06T15:58:56.889Z,19.01
2023-10-06T16:00:02.901Z,18.59
2023-10-06T16:01:10.614Z,18.67
2023-10-06T16:02:14.544Z,18.75
2023-10-06T16:03:21.230Z,18.62
2023-10-06T16:04:26.113Z,18.58
2023-10-06T16:05:27.568Z,18.58
2023-10-06T16:06:33.135Z,18.49
2023-10-06T16:07:40.418Z,18.54
2023-10-06T16:08:47.934Z,18.50
2023-10-06T16:09:51.214Z,18.55
2023-10-06T16:10:52.616Z,18.52
2023-10-06T16:11:54.405Z,18.57
2023-10-06T16:12:55.890Z,18.50
2023-10-06T16:13:57.317Z,18.27
2023-10-06T16:21:56.523Z,17.72
